Time;durP1;ratioP1;P1;durP2;ratioP2;P2;SDS_P1;SDS_P2;PMS_P1;PMS_P2;Temp;Humidity;BMP_temperature;BMP_pressure;BME280_temperature;BME280_humidity;BME280_pressure;Samples;Min_cycle;Max_cycle;Signal;HPM_P1;HPM_P2
2022/09/16 05:12:37;;;;;;;8.30;1.02;;;17.60;66.20;;;;;;4801754;29;20078;-74
2022/09/16 05:15:04;;;;;;;7.05;1.40;;;17.70;66.30;;;;;;4807715;29;20054;-79
2022/09/16 05:17:30;;;;;;;5.80;1.13;;;17.70;65.00;;;;;;4807817;29;20059;-76
2022/09/16 05:19:56;;;;;;;9.52;2.85;;;17.80;63.50;;;;;;4792138;29;20058;-77
2022/09/16 05:22:22;;;;;;;7.55;0.98;;;17.70;63.10;;;;;;4807833;29;20063;-77
2022/09/16 05:24:48;;;;;;;7.97;1.50;;;17.70;62.80;;;;;;4808226;29;20108;-81
2022/09/16 05:27:16;;;;;;;5.72;1.10;;;17.60;62.30;;;;;;4806762;29;20505;-81
2022/09/16 05:29:41;;;;;;;6.90;0.90;;;17.60;62.50;;;;;;4807888;29;20128;-81
2022/09/16 05:32:07;;;;;;;6.60;1.30;;;17.60;62.50;;;;;;4807259;29;20047;-77
2022/09/16 05:34:35;;;;;;;6.18;1.00;;;17.50;62.20;;;;;;4807840;29;20050;-81
2022/09/16 05:37:01;;;;;;;4.65;0.75;;;17.50;61.60;;;;;;4810813;29;20415;-80
2022/09/16 05:39:27;;;;;;;8.32;1.27;;;17.40;61.40;;;;;;4811724;29;20110;-78
2022/09/16 05:41:57;;;;;;;8.10;1.85;;;17.40;61.00;;;;;;4811717;29;20059;-76
2022/09/16 05:44:24;;;;;;;5.30;1.17;;;17.30;61.10;;;;;;4811019;29;20050;-81
2022/09/16 05:46:51;;;;;;;9.35;1.33;;;17.30;61.10;;;;;;4780271;29;20108;-81
2022/09/16 05:49:19;;;;;;;8.20;1.95;;;17.30;61.30;;;;;;4810944;29;20507;-78
2022/09/16 05:51:46;;;;;;;8.10;1.10;;;17.20;61.30;;;;;;4810390;29;20146;-78
2022/09/16 05:54:12;;;;;;;6.38;1.38;;;17.20;61.20;;;;;;4795405;29;20514;-78
2022/09/16 05:56:38;;;;;;;9.45;1.17;;;17.20;61.10;;;;;;4811163;29;20058;-78
2022/09/16 05:59:04;;;;;;;10.95;1.90;;;17.10;60.90;;;;;;4811332;29;20047;-80
2022/09/16 06:01:34;;;;;;;6.65;1.13;;;17.10;61.10;;;;;;4811014;29;20051;-80
2022/09/16 06:04:02;;;;;;;8.13;1.30;;;17.00;61.30;;;;;;4811207;29;20062;-80
2022/09/16 06:06:33;;;;;;;8.82;1.50;;;16.90;61.60;;;;;;4810790;29;20050;-78
2022/09/16 06:09:23;;;;;;;6.15;1.40;;;16.80;62.10;;;;;;4810759;29;20121;-80
2022/09/16 06:11:50;;;;;;;13.13;1.33;;;16.80;62.70;;;;;;4785087;29;20058;-78
2022/09/16 06:14:17;;;;;;;15.52;2.58;;;16.90;63.10;;;;;;4796410;29;20074;-79
2022/09/16 06:16:44;;;;;;;17.35;2.47;;;16.90;63.30;;;;;;4792474;30;20145;-80
2022/09/16 06:19:14;;;;;;;7.32;1.55;;;17.00;63.40;;;;;;4792959;30;20047;-78
2022/09/16 06:21:42;;;;;;;17.17;2.13;;;17.10;63.50;;;;;;4792757;30;20051;-78
2022/09/16 06:24:09;;;;;;;10.80;2.00;;;17.20;63.60;;;;;;4792543;30;20066;-79
2022/09/16 06:26:37;;;;;;;9.02;1.70;;;17.20;63.70;;;;;;4792618;30;20097;-77
2022/09/16 06:29:04;;;;;;;9.15;1.60;;;17.30;63.80;;;;;;4792587;30;20047;-78
2022/09/16 06:31:30;;;;;;;6.82;1.20;;;17.30;63.90;;;;;;4792936;30;20063;-78
2022/09/16 06:33:57;;;;;;;7.22;1.30;;;17.30;64.00;;;;;;4807020;29;20098;-78
2022/09/16 06:36:32;;;;;;;16.40;1.70;;;17.40;64.10;;;;;;4794447;29;20112;-79
2022/09/16 06:38:58;;;;;;;7.30;1.17;;;17.40;64.10;;;;;;4810299;29;20090;-78
2022/09/16 06:41:24;;;;;;;6.93;1.27;;;17.50;64.30;;;;;;4809993;29;20093;-80
2022/09/16 06:43:50;;;;;;;6.25;1.40;;;17.50;64.30;;;;;;4794922;29;20063;-78
2022/09/16 06:46:22;;;;;;;8.38;1.70;;;17.50;64.10;;;;;;4810720;29;20051;-77
2022/09/16 06:48:50;;;;;;;6.60;1.77;;;17.60;63.80;;;;;;4793279;29;20055;-80
2022/09/16 06:51:18;;;;;;;10.07;1.40;;;17.60;63.60;;;;;;4791524;29;20059;-79
2022/09/16 06:53:45;;;;;;;8.98;1.25;;;17.60;63.40;;;;;;4776654;30;20055;-79
2022/09/16 06:56:17;;;;;;;7.18;1.13;;;17.60;63.30;;;;;;4777222;29;20435;-80
2022/09/16 06:58:48;;;;;;;7.68;1.17;;;17.60;63.10;;;;;;4809837;29;20112;-79
2022/09/16 07:01:19;;;;;;;7.95;1.40;;;17.60;62.90;;;;;;4810000;29;20054;-79
2022/09/16 07:03:47;;;;;;;5.90;1.00;;;17.60;62.80;;;;;;4804276;29;20130;-81
2022/09/16 07:06:14;;;;;;;8.00;1.67;;;17.60;62.60;;;;;;4774119;30;20138;-80
2022/09/16 07:08:40;;;;;;;6.57;1.50;;;17.60;62.30;;;;;;4774379;30;20060;-79
2022/09/16 07:11:18;;;;;;;11.52;1.83;;;17.70;62.20;;;;;;4758789;30;20187;-78
2022/09/16 07:13:46;;;;;;;7.07;1.42;;;17.70;61.90;;;;;;4790349;30;20136;-79
2022/09/16 07:16:14;;;;;;;9.48;1.70;;;17.70;62.00;;;;;;4776382;30;20143;-78
2022/09/16 07:18:41;;;;;;;7.20;1.00;;;17.70;61.80;;;;;;4791686;30;20059;-77
2022/09/16 07:21:09;;;;;;;8.13;1.55;;;17.70;61.80;;;;;;4791937;30;20119;-77
2022/09/16 07:23:36;;;;;;;15.07;2.05;;;17.70;61.90;;;;;;4807914;29;20423;-77
2022/09/16 07:26:14;;;;;;;9.55;1.52;;;17.70;62.10;;;;;;4811955;29;20125;-76
2022/09/16 07:28:42;;;;;;;13.68;2.42;;;17.60;62.20;;;;;;4820074;29;20126;-76
2022/09/16 07:31:10;;;;;;;19.35;2.72;;;17.60;62.50;;;;;;4809528;29;20054;-79
2022/09/16 07:33:38;;;;;;;12.90;1.90;;;17.50;62.60;;;;;;4809683;29;20058;-77
2022/09/16 07:36:06;;;;;;;9.30;1.88;;;17.60;62.80;;;;;;4793480;29;20054;-76
2022/09/16 07:38:32;;;;;;;10.57;1.85;;;17.60;62.90;;;;;;4809591;29;20408;-77
2022/09/16 07:41:13;;;;;;;10.13;1.88;;;17.60;63.00;;;;;;4827602;29;20126;-78
2022/09/16 07:43:41;;;;;;;13.55;1.70;;;17.60;63.70;;;;;;4828129;29;20050;-77
2022/09/16 07:46:09;;;;;;;9.57;1.73;;;17.60;63.30;;;;;;4812127;29;20481;-78
2022/09/16 07:48:36;;;;;;;22.70;3.17;;;17.60;63.50;;;;;;4827533;29;20046;-78
2022/09/16 07:51:07;;;;;;;8.07;1.80;;;17.70;63.70;;;;;;4827342;29;20119;-76
2022/09/16 07:53:34;;;;;;;10.50;1.58;;;17.70;63.70;;;;;;4827353;29;20046;-76
2022/09/16 07:56:20;;;;;;;15.57;1.80;;;17.70;63.60;;;;;;4826945;29;20054;-77
2022/09/16 07:58:46;;;;;;;8.07;1.80;;;17.80;63.50;;;;;;4826466;29;20050;-77
2022/09/16 08:01:15;;;;;;;8.63;1.52;;;17.70;63.10;;;;;;4806898;29;20050;-78
2022/09/16 08:03:42;;;;;;;10.30;1.92;;;17.80;62.20;;;;;;4825902;29;20057;-80
2022/09/16 08:06:11;;;;;;;6.63;1.50;;;17.80;61.50;;;;;;4827128;29;20054;-78
2022/09/16 08:08:37;;;;;;;8.32;1.50;;;17.80;60.90;;;;;;4826957;29;20050;-78
2022/09/16 08:11:03;;;;;;;6.63;1.10;;;17.90;61.10;;;;;;4827388;29;20129;-77
2022/09/16 08:13:30;;;;;;;6.70;1.48;;;17.90;61.20;;;;;;4827027;29;20069;-78
2022/09/16 08:16:04;;;;;;;5.78;1.30;;;17.90;61.60;;;;;;4827268;29;20496;-77
2022/09/16 08:18:31;;;;;;;4.43;1.00;;;17.90;61.20;;;;;;4811151;29;20207;-77
2022/09/16 08:20:58;;;;;;;10.88;1.80;;;18.00;60.70;;;;;;4827460;29;20141;-79
2022/09/16 08:23:24;;;;;;;6.13;1.27;;;18.00;60.70;;;;;;4827167;29;20061;-77
2022/09/16 08:25:59;;;;;;;6.93;1.10;;;18.00;61.50;;;;;;4811267;29;20054;-78
2022/09/16 08:28:26;;;;;;;5.63;1.38;;;18.00;61.60;;;;;;4791128;29;20046;-76
2022/09/16 08:30:52;;;;;;;5.78;0.80;;;18.00;61.00;;;;;;4808845;29;20062;-76
2022/09/16 08:33:23;;;;;;;3.13;1.00;;;18.00;62.10;;;;;;4809233;29;20051;-76
2022/09/16 08:36:03;;;;;;;9.52;1.30;;;18.00;62.50;;;;;;4808794;29;20051;-78
2022/09/16 08:38:29;;;;;;;12.73;1.73;;;18.00;62.90;;;;;;4808540;29;20042;-78
2022/09/16 08:41:07;;;;;;;9.70;1.60;;;18.10;62.10;;;;;;4808753;29;20141;-77
2022/09/16 08:43:42;;;;;;;7.22;1.25;;;18.10;61.80;;;;;;4792210;29;20059;-77
2022/09/16 08:46:30;;;;;;;8.45;1.65;;;18.10;61.40;;;;;;4807970;29;20520;-78
2022/09/16 08:49:09;;;;;;;8.18;1.33;;;18.10;61.80;;;;;;4792291;29;20081;-79
2022/09/16 08:51:35;;;;;;;4.03;1.08;;;18.10;61.60;;;;;;4792105;29;20043;-80
2022/09/16 08:54:05;;;;;;;7.53;1.17;;;18.10;61.70;;;;;;4774205;29;20065;-79
2022/09/16 08:56:36;;;;;;;6.38;1.30;;;18.10;61.80;;;;;;4821062;29;20054;-80
2022/09/16 08:59:10;;;;;;;5.55;1.13;;;18.20;62.30;;;;;;4808135;29;20069;-79
2022/09/16 09:02:40;;;;;;;8.57;1.05;;;18.20;62.20;;;;;;4825385;29;20129;-78
2022/09/16 09:05:18;;;;;;;5.53;1.10;;;18.20;62.30;;;;;;4813085;29;20058;-79
2022/09/16 09:07:52;;;;;;;5.22;1.17;;;18.20;62.30;;;;;;4826222;29;20195;-78
2022/09/16 09:10:28;;;;;;;4.20;1.10;;;18.30;62.50;;;;;;4826102;29;20042;-78
2022/09/16 09:12:57;;;;;;;7.32;1.08;;;18.30;62.50;;;;;;4827113;29;20054;-78
2022/09/16 09:15:30;;;;;;;8.40;1.83;;;18.30;62.70;;;;;;4825537;29;20141;-77
2022/09/16 09:18:18;;;;;;;11.70;2.30;;;18.30;62.70;;;;;;4826327;29;20047;-79
2022/09/16 09:21:24;;;;;;;8.27;1.58;;;18.30;62.60;;;;;;4824264;29;20608;-77
2022/09/16 09:24:27;;;;;;;7.78;1.92;;;18.30;62.50;;;;;;4809470;29;20055;-78
2022/09/16 09:27:26;;;;;;;5.53;0.82;;;18.30;62.40;;;;;;4826430;29;20055;-78
2022/09/16 09:30:11;;;;;;;7.78;1.20;;;18.30;62.80;;;;;;4815451;29;20058;-75
2022/09/16 09:32:57;;;;;;;8.88;1.63;;;18.30;62.50;;;;;;4788906;30;20057;-78
2022/09/16 09:35:53;;;;;;;8.40;1.65;;;18.30;61.60;;;;;;4789294;30;20055;-74
2022/09/16 09:38:34;;;;;;;10.88;1.42;;;18.40;61.40;;;;;;4789448;30;20065;-75
2022/09/16 09:41:32;;;;;;;6.65;1.27;;;18.30;61.40;;;;;;4790079;30;20065;-78
2022/09/16 09:44:23;;;;;;;5.45;1.38;;;18.30;61.40;;;;;;4787854;30;20055;-74
2022/09/16 09:46:55;;;;;;;8.38;1.38;;;18.30;60.00;;;;;;4774303;30;20105;-74
2022/09/16 09:49:54;;;;;;;5.45;0.95;;;18.30;59.70;;;;;;4799953;29;20047;-76
2022/09/16 09:52:27;;;;;;;4.00;0.90;;;18.40;60.60;;;;;;4802634;29;20066;-74
2022/09/16 09:54:52;;;;;;;4.82;0.80;;;18.40;60.20;;;;;;4805884;29;20346;-76
2022/09/16 09:57:24;;;;;;;3.83;0.90;;;18.40;60.90;;;;;;4822003;29;20050;-76
2022/09/16 10:00:09;;;;;;;5.35;0.90;;;18.40;60.10;;;;;;4807662;29;20051;-76
2022/09/16 10:02:41;;;;;;;8.43;1.30;;;18.40;59.80;;;;;;4821016;29;20057;-76
2022/09/16 10:05:27;;;;;;;8.05;1.17;;;18.40;60.00;;;;;;4826332;29;20073;-76
2022/09/16 10:08:06;;;;;;;7.22;1.45;;;18.40;59.60;;;;;;4826056;29;20133;-76
2022/09/16 10:10:33;;;;;;;3.60;0.95;;;18.40;59.70;;;;;;4825869;29;20047;-76
2022/09/16 10:13:07;;;;;;;5.40;1.00;;;18.40;59.60;;;;;;4825877;29;20136;-75
2022/09/16 10:15:33;;;;;;;6.78;1.25;;;18.40;59.80;;;;;;4825734;29;20104;-75
2022/09/16 10:18:02;;;;;;;4.43;1.10;;;18.40;59.90;;;;;;4825610;29;20443;-76
2022/09/16 10:20:34;;;;;;;5.80;1.08;;;18.40;59.40;;;;;;4825553;29;20058;-75
2022/09/16 10:23:04;;;;;;;4.82;0.95;;;18.40;59.10;;;;;;4810727;29;20061;-76
2022/09/16 10:25:32;;;;;;;6.20;1.48;;;18.40;58.60;;;;;;4828611;29;20050;-76
2022/09/16 10:28:04;;;;;;;5.82;0.95;;;18.40;58.40;;;;;;4828937;29;20129;-76
2022/09/16 10:30:54;;;;;;;4.65;1.15;;;18.40;59.00;;;;;;4816577;29;20053;-76
2022/09/16 10:33:33;;;;;;;5.88;1.10;;;18.40;59.80;;;;;;4810599;29;20054;-76
2022/09/16 10:36:07;;;;;;;10.60;1.50;;;18.50;59.10;;;;;;4810852;29;20058;-76
2022/09/16 10:38:45;;;;;;;7.60;1.58;;;18.40;59.00;;;;;;4809397;29;20055;-76
2022/09/16 10:41:18;;;;;;;5.85;1.00;;;18.50;59.50;;;;;;4808823;29;20125;-76
2022/09/16 10:44:13;;;;;;;10.30;1.25;;;18.50;59.40;;;;;;4810839;29;20061;-76
2022/09/16 10:46:55;;;;;;;6.38;1.17;;;18.50;60.00;;;;;;4810390;29;20054;-77
2022/09/16 10:49:27;;;;;;;7.53;1.10;;;18.50;59.80;;;;;;4810533;29;20051;-76
2022/09/16 10:51:53;;;;;;;6.35;1.15;;;18.50;60.00;;;;;;4809584;29;20043;-76
2022/09/16 10:54:26;;;;;;;7.28;1.30;;;18.50;59.60;;;;;;4810084;29;20347;-76
2022/09/16 10:56:52;;;;;;;;;;;18.50;59.60;;;;;;4808685;29;20062;-76
2022/09/16 10:59:18;;;;;;;4.75;1.02;;;18.40;60.50;;;;;;4811554;29;19936;-76
2022/09/16 11:02:11;;;;;;;5.03;0.80;;;18.50;59.90;;;;;;4828074;29;20469;-77
2022/09/16 18:38:12;;;;;;;10.15;1.80;;;18.30;65.70;;;;;;4787756;30;20078;-74
2022/09/16 18:40:38;;;;;;;14.75;2.33;;;18.30;65.70;;;;;;4793002;29;20055;-76
2022/09/16 18:43:04;;;;;;;9.25;1.65;;;18.30;65.80;;;;;;4807118;29;20070;-74
2022/09/16 18:45:31;;;;;;;12.25;2.50;;;18.30;66.50;;;;;;4810088;29;20062;-75
2022/09/16 18:47:56;;;;;;;11.35;2.08;;;18.30;66.10;;;;;;4810822;29;20367;-75
2022/09/16 18:50:22;;;;;;;13.50;1.60;;;18.30;66.20;;;;;;4810570;29;20062;-76
2022/09/16 18:52:48;;;;;;;16.27;2.67;;;18.30;66.10;;;;;;4810841;29;20113;-76
2022/09/16 18:55:14;;;;;;;9.40;1.98;;;18.30;66.00;;;;;;4810505;29;20055;-75
2022/09/16 18:57:40;;;;;;;10.30;1.50;;;18.30;65.80;;;;;;4810706;29;20058;-75
2022/09/16 19:00:07;;;;;;;11.48;1.92;;;18.30;65.70;;;;;;4828174;29;20054;-74
2022/09/16 19:02:32;;;;;;;7.43;1.77;;;18.30;65.60;;;;;;4828158;29;20562;-75
2022/09/16 19:04:58;;;;;;;8.85;1.58;;;18.30;65.80;;;;;;4828466;29;20085;-72
2022/09/16 19:07:24;;;;;;;10.05;2.05;;;18.30;65.50;;;;;;4825720;29;20073;-75
2022/09/16 19:09:49;;;;;;;12.63;2.53;;;18.30;65.40;;;;;;4819579;29;20042;-76
2022/09/16 19:12:15;;;;;;;9.02;1.80;;;18.30;65.60;;;;;;4827545;29;20100;-77
2022/09/16 19:14:41;;;;;;;9.02;2.30;;;18.30;65.60;;;;;;4827916;29;20133;-77
2022/09/16 19:17:07;;;;;;;12.15;2.22;;;18.30;65.60;;;;;;4828283;29;20409;-76
2022/09/16 19:19:33;;;;;;;11.38;2.47;;;18.30;65.50;;;;;;4828007;29;20378;-75
2022/09/16 19:21:59;;;;;;;9.68;2.20;;;18.30;65.40;;;;;;4828018;29;20505;-78
2022/09/16 19:24:25;;;;;;;10.70;2.40;;;18.30;65.50;;;;;;4796774;29;20133;-74
2022/09/16 19:26:54;;;;;;;9.52;1.48;;;18.30;65.50;;;;;;4827997;29;20102;-78
2022/09/16 19:29:20;;;;;;;5.25;1.63;;;18.30;65.60;;;;;;4827525;29;20054;-73
2022/09/16 19:31:47;;;;;;;8.13;1.95;;;18.30;65.90;;;;;;4827836;29;20050;-75
2022/09/16 19:34:15;;;;;;;8.93;1.52;;;18.30;66.30;;;;;;4827859;29;20042;-74
2022/09/16 19:36:41;;;;;;;9.65;1.60;;;18.30;66.60;;;;;;4827750;29;20062;-76
2022/09/16 19:39:09;;;;;;;8.60;2.15;;;18.30;66.60;;;;;;4828215;29;20354;-78
2022/09/16 19:41:36;;;;;;;8.30;1.52;;;18.30;66.40;;;;;;4826315;29;20058;-77
2022/09/16 19:44:05;;;;;;;10.60;1.80;;;18.40;66.50;;;;;;4827383;29;20061;-79
2022/09/16 19:46:35;;;;;;;11.40;1.73;;;18.40;66.80;;;;;;4828164;29;20356;-78
2022/09/16 19:49:01;;;;;;;11.27;2.33;;;18.40;66.80;;;;;;4827867;29;20389;-75
2022/09/16 19:51:27;;;;;;;6.47;1.60;;;18.40;66.80;;;;;;4827158;29;20042;-76
2022/09/16 19:53:54;;;;;;;10.75;2.00;;;18.40;66.80;;;;;;4827464;29;20042;-77
2022/09/16 19:56:22;;;;;;;9.85;2.10;;;18.40;66.80;;;;;;4827681;29;20085;-75
2022/09/16 19:58:49;;;;;;;9.70;1.90;;;18.40;66.90;;;;;;4827659;29;20062;-77
2022/09/16 20:01:22;;;;;;;10.38;2.05;;;18.40;66.90;;;;;;4827125;29;20046;-77
2022/09/16 20:03:48;;;;;;;9.23;2.07;;;18.40;67.00;;;;;;4827305;29;20050;-77
2022/09/16 20:06:26;;;;;;;8.75;1.35;;;18.40;67.00;;;;;;4811477;29;20423;-75
2022/09/16 20:08:59;;;;;;;8.98;2.00;;;18.40;67.00;;;;;;4827644;29;20405;-77
2022/09/16 20:11:30;;;;;;;9.02;1.88;;;18.40;67.00;;;;;;4827197;29;20121;-77
2022/09/16 20:14:02;;;;;;;10.73;1.80;;;18.40;67.10;;;;;;4827017;29;20137;-74
2022/09/16 20:16:30;;;;;;;14.27;1.80;;;18.40;67.10;;;;;;4827942;29;20092;-78
2022/09/16 20:18:57;;;;;;;10.93;2.15;;;18.40;67.20;;;;;;4826665;29;20054;-78
2022/09/16 20:21:25;;;;;;;7.28;1.52;;;18.40;67.40;;;;;;4827124;29;20647;-76
2022/09/16 20:23:52;;;;;;;10.65;1.88;;;18.40;67.40;;;;;;4810718;29;20058;-78
2022/09/16 20:26:18;;;;;;;8.93;1.63;;;18.40;67.40;;;;;;4826823;29;20050;-75
2022/09/16 20:28:49;;;;;;;7.53;1.23;;;18.40;67.40;;;;;;4827132;29;20054;-76
2022/09/16 20:31:16;;;;;;;7.72;1.42;;;18.40;67.50;;;;;;4826918;29;20062;-78
2022/09/16 20:33:42;;;;;;;9.43;1.70;;;18.40;67.50;;;;;;4826518;29;20065;-79
2022/09/16 20:36:13;;;;;;;5.13;1.40;;;18.40;67.50;;;;;;4826677;29;20054;-79
2022/09/16 20:38:40;;;;;;;5.97;1.30;;;18.40;67.50;;;;;;4792921;29;20097;-77
2022/09/16 20:41:06;;;;;;;10.38;1.95;;;18.40;67.50;;;;;;4808433;29;20116;-77
2022/09/16 20:43:34;;;;;;;5.65;1.38;;;18.40;67.50;;;;;;4821687;29;20478;-77
